sensor_id;sensor_type;location;lat;lon;timestamp;pressure;altitude;pressure_sealevel;temperature;humidity
46303;BME280;32029;51.358;5.628;2023-04-06T00:00:14;101581.00;;;5.76;65.83
46303;BME280;32029;51.358;5.628;2023-04-06T00:02:41;101585.00;;;5.72;65.40
46303;BME280;32029;51.358;5.628;2023-04-06T00:05:07;101586.00;;;5.71;65.15
46303;BME280;32029;51.358;5.628;2023-04-06T00:07:34;101582.53;;;5.69;65.04
46303;BME280;32029;51.358;5.628;2023-04-06T00:10:02;101586.44;;;5.67;64.98
46303;BME280;32029;51.358;5.628;2023-04-06T00:12:28;101578.53;;;5.63;64.23
46303;BME280;32029;51.358;5.628;2023-04-06T00:14:55;101576.91;;;5.61;63.94
46303;BME280;32029;51.358;5.628;2023-04-06T00:17:22;101585.25;;;5.59;63.85
46303;BME280;32029;51.358;5.628;2023-04-06T00:19:49;101580.91;;;5.57;63.59
46303;BME280;32029;51.358;5.628;2023-04-06T00:22:15;101576.63;;;5.54;63.54
46303;BME280;32029;51.358;5.628;2023-04-06T00:24:42;101572.31;;;5.52;63.50
46303;BME280;32029;51.358;5.628;2023-04-06T00:27:09;101572.56;;;5.49;63.44
46303;BME280;32029;51.358;5.628;2023-04-06T00:29:35;101571.88;;;5.47;63.77
46303;BME280;32029;51.358;5.628;2023-04-06T00:32:01;101562.97;;;5.45;63.72
46303;BME280;32029;51.358;5.628;2023-04-06T00:34:27;101562.25;;;5.43;63.82
46303;BME280;32029;51.358;5.628;2023-04-06T00:36:54;101564.50;;;5.37;64.26
46303;BME280;32029;51.358;5.628;2023-04-06T00:39:21;101556.22;;;5.39;64.69
46303;BME280;32029;51.358;5.628;2023-04-06T00:41:51;101554.63;;;5.36;65.60
46303;BME280;32029;51.358;5.628;2023-04-06T00:44:19;101547.47;;;5.35;65.94
46303;BME280;32029;51.358;5.628;2023-04-06T00:46:45;101556.75;;;5.33;66.18
46303;BME280;32029;51.358;5.628;2023-04-06T00:49:12;101541.25;;;5.24;66.49
46303;BME280;32029;51.358;5.628;2023-04-06T00:51:38;101540.81;;;5.28;66.00
46303;BME280;32029;51.358;5.628;2023-04-06T00:54:04;101458.63;;;4.73;65.84
46303;BME280;32029;51.358;5.628;2023-04-06T00:56:31;101547.53;;;5.24;65.99
46303;BME280;32029;51.358;5.628;2023-04-06T00:58:57;101542.34;;;5.21;66.42
46303;BME280;32029;51.358;5.628;2023-04-06T01:01:25;101535.00;;;5.12;66.80
46303;BME280;32029;51.358;5.628;2023-04-06T01:03:52;101532.03;;;5.15;66.65
46303;BME280;32029;51.358;5.628;2023-04-06T01:06:18;101528.56;;;5.13;66.60
46303;BME280;32029;51.358;5.628;2023-04-06T01:08:45;101540.19;;;5.15;67.03
46303;BME280;32029;51.358;5.628;2023-04-06T01:11:11;101537.75;;;5.12;66.96
46303;BME280;32029;51.358;5.628;2023-04-06T01:13:38;101525.09;;;5.11;66.26
46303;BME280;32029;51.358;5.628;2023-04-06T01:16:05;101523.41;;;5.10;66.25
46303;BME280;32029;51.358;5.628;2023-04-06T01:18:31;101523.41;;;5.10;65.68
46303;BME280;32029;51.358;5.628;2023-04-06T01:20:57;101523.66;;;5.07;65.86
46303;BME280;32029;51.358;5.628;2023-04-06T01:23:24;101521.94;;;5.06;65.78
46303;BME280;32029;51.358;5.628;2023-04-06T01:25:50;101518.50;;;5.04;66.14
46303;BME280;32029;51.358;5.628;2023-04-06T01:28:16;101517.31;;;4.97;65.97
46303;BME280;32029;51.358;5.628;2023-04-06T01:30:43;101516.31;;;4.98;66.47
46303;BME280;32029;51.358;5.628;2023-04-06T01:33:09;101519.19;;;4.96;66.53
46303;BME280;32029;51.358;5.628;2023-04-06T01:35:35;101496.63;;;4.84;66.57
46303;BME280;32029;51.358;5.628;2023-04-06T01:38:02;101519.59;;;4.91;66.71
46303;BME280;32029;51.358;5.628;2023-04-06T01:40:28;101505.25;;;4.89;67.13
46303;BME280;32029;51.358;5.628;2023-04-06T01:42:54;101498.34;;;4.85;67.41
46303;BME280;32029;51.358;5.628;2023-04-06T01:45:20;101475.97;;;4.72;67.75
46303;BME280;32029;51.358;5.628;2023-04-06T01:47:47;101472.56;;;4.80;67.80
46303;BME280;32029;51.358;5.628;2023-04-06T01:50:13;101499.53;;;4.93;67.88
46303;BME280;32029;51.358;5.628;2023-04-06T01:52:40;101482.75;;;4.87;68.16
46303;BME280;32029;51.358;5.628;2023-04-06T01:55:07;101476.06;;;4.91;67.98
46303;BME280;32029;51.358;5.628;2023-04-06T01:57:33;101486.13;;;5.01;68.10
46303;BME280;32029;51.358;5.628;2023-04-06T02:00:00;101485.56;;;5.07;68.12
46303;BME280;32029;51.358;5.628;2023-04-06T02:02:26;101493.47;;;5.10;68.13
46303;BME280;32029;51.358;5.628;2023-04-06T02:04:53;101481.31;;;5.14;68.10
46303;BME280;32029;51.358;5.628;2023-04-06T02:07:19;101472.88;;;5.17;68.34
46303;BME280;32029;51.358;5.628;2023-04-06T02:09:46;101480.63;;;5.22;68.33
46303;BME280;32029;51.358;5.628;2023-04-06T02:12:13;101480.22;;;5.26;68.36
46303;BME280;32029;51.358;5.628;2023-04-06T02:14:39;101476.22;;;5.30;68.46
46303;BME280;32029;51.358;5.628;2023-04-06T02:17:05;101473.97;;;5.35;68.14
46303;BME280;32029;51.358;5.628;2023-04-06T02:19:31;101467.25;;;5.39;68.24
46303;BME280;32029;51.358;5.628;2023-04-06T02:21:57;101475.16;;;5.43;68.11
46303;BME280;32029;51.358;5.628;2023-04-06T02:24:23;101460.53;;;5.44;68.01
46303;BME280;32029;51.358;5.628;2023-04-06T02:26:49;101453.22;;;5.44;67.86
46303;BME280;32029;51.358;5.628;2023-04-06T02:29:15;101470.47;;;5.54;68.08
46303;BME280;32029;51.358;5.628;2023-04-06T02:31:41;101460.53;;;5.53;67.83
46303;BME280;32029;51.358;5.628;2023-04-06T02:34:07;101447.09;;;5.52;67.65
46303;BME280;32029;51.358;5.628;2023-04-06T02:36:36;101437.63;;;5.56;67.62
46303;BME280;32029;51.358;5.628;2023-04-06T02:39:03;101445.38;;;5.60;67.41
46303;BME280;32029;51.358;5.628;2023-04-06T02:41:30;101431.66;;;5.62;67.94
46303;BME280;32029;51.358;5.628;2023-04-06T02:43:57;101448.13;;;5.70;68.20
46303;BME280;32029;51.358;5.628;2023-04-06T02:46:23;101443.53;;;5.71;68.20
46303;BME280;32029;51.358;5.628;2023-04-06T02:48:49;101426.75;;;5.65;68.16
46303;BME280;32029;51.358;5.628;2023-04-06T02:51:16;101444.13;;;5.74;68.59
46303;BME280;32029;51.358;5.628;2023-04-06T02:53:43;101440.41;;;5.75;68.72
46303;BME280;32029;51.358;5.628;2023-04-06T02:56:09;101436.66;;;5.76;68.06
46303;BME280;32029;51.358;5.628;2023-04-06T02:58:36;101436.38;;;5.79;67.96
46303;BME280;32029;51.358;5.628;2023-04-06T03:01:03;101436.22;;;5.81;68.18
46303;BME280;32029;51.358;5.628;2023-04-06T03:03:30;101398.97;;;5.62;67.68
46303;BME280;32029;51.358;5.628;2023-04-06T03:05:57;101418.75;;;5.83;67.63
46303;BME280;32029;51.358;5.628;2023-04-06T03:08:25;101423.06;;;5.86;67.39
46303;BME280;32029;51.358;5.628;2023-04-06T03:10:51;101416.44;;;5.88;67.42
46303;BME280;32029;51.358;5.628;2023-04-06T03:13:18;101425.34;;;5.90;67.07
46303;BME280;32029;51.358;5.628;2023-04-06T03:15:45;101422.50;;;5.92;66.89
46303;BME280;32029;51.358;5.628;2023-04-06T03:18:11;101411.59;;;5.82;67.30
46303;BME280;32029;51.358;5.628;2023-04-06T03:20:38;101417.66;;;5.96;67.32
46303;BME280;32029;51.358;5.628;2023-04-06T03:23:04;101417.38;;;5.99;67.16
46303;BME280;32029;51.358;5.628;2023-04-06T03:25:31;101408.91;;;5.92;67.40
46303;BME280;32029;51.358;5.628;2023-04-06T03:27:58;101416.22;;;6.01;67.63
46303;BME280;32029;51.358;5.628;2023-04-06T03:30:24;101413.50;;;6.01;66.92
46303;BME280;32029;51.358;5.628;2023-04-06T03:32:51;101411.47;;;6.03;67.06
46303;BME280;32029;51.358;5.628;2023-04-06T03:35:17;101341.47;;;5.65;66.91
46303;BME280;32029;51.358;5.628;2023-04-06T03:37:43;101398.88;;;6.02;67.06
46303;BME280;32029;51.358;5.628;2023-04-06T03:40:10;101409.06;;;6.10;66.98
46303;BME280;32029;51.358;5.628;2023-04-06T03:42:36;101412.47;;;6.12;66.94
46303;BME280;32029;51.358;5.628;2023-04-06T03:45:02;101399.00;;;6.10;66.42
46303;BME280;32029;51.358;5.628;2023-04-06T03:47:29;101402.16;;;6.16;66.18
46303;BME280;32029;51.358;5.628;2023-04-06T03:49:56;101407.31;;;6.19;66.17
46303;BME280;32029;51.358;5.628;2023-04-06T03:52:22;101401.72;;;6.20;66.07
46303;BME280;32029;51.358;5.628;2023-04-06T03:54:49;101402.44;;;6.22;65.81
46303;BME280;32029;51.358;5.628;2023-04-06T03:57:16;101397.72;;;6.24;65.77
46303;BME280;32029;51.358;5.628;2023-04-06T03:59:43;101400.28;;;6.26;65.84
46303;BME280;32029;51.358;5.628;2023-04-06T04:02:10;101386.09;;;6.22;65.85
46303;BME280;32029;51.358;5.628;2023-04-06T04:04:37;101395.53;;;6.28;65.71
46303;BME280;32029;51.358;5.628;2023-04-06T04:07:03;101397.28;;;6.29;65.86
46303;BME280;32029;51.358;5.628;2023-04-06T04:09:29;101395.41;;;6.29;65.80
46303;BME280;32029;51.358;5.628;2023-04-06T04:11:56;101391.25;;;6.25;65.47
46303;BME280;32029;51.358;5.628;2023-04-06T04:14:23;101404.28;;;6.31;65.47
46303;BME280;32029;51.358;5.628;2023-04-06T04:16:49;101381.19;;;6.16;65.39
46303;BME280;32029;51.358;5.628;2023-04-06T04:19:15;101410.47;;;6.33;65.51
46303;BME280;32029;51.358;5.628;2023-04-06T04:21:44;101409.44;;;6.34;65.60
46303;BME280;32029;51.358;5.628;2023-04-06T04:24:12;101404.00;;;6.34;65.81
46303;BME280;32029;51.358;5.628;2023-04-06T04:26:39;101408.44;;;6.35;65.42
46303;BME280;32029;51.358;5.628;2023-04-06T04:29:05;101404.28;;;6.31;65.75
46303;BME280;32029;51.358;5.628;2023-04-06T04:31:31;101378.63;;;6.14;65.27
46303;BME280;32029;51.358;5.628;2023-04-06T04:33:59;101408.31;;;6.37;65.71
46303;BME280;32029;51.358;5.628;2023-04-06T04:36:25;101394.81;;;6.35;65.28
46303;BME280;32029;51.358;5.628;2023-04-06T04:38:52;101314.97;;;5.86;65.19
46303;BME280;32029;51.358;5.628;2023-04-06T04:41:19;101407.88;;;6.42;65.62
46303;BME280;32029;51.358;5.628;2023-04-06T04:43:46;101373.47;;;6.21;65.25
46303;BME280;32029;51.358;5.628;2023-04-06T04:46:13;101415.88;;;6.43;65.46
46303;BME280;32029;51.358;5.628;2023-04-06T04:48:40;101400.41;;;6.44;65.00
46303;BME280;32029;51.358;5.628;2023-04-06T04:51:06;101400.41;;;6.44;65.48
46303;BME280;32029;51.358;5.628;2023-04-06T04:53:33;101390.53;;;6.33;65.15
46303;BME280;32029;51.358;5.628;2023-04-06T04:56:00;101402.25;;;6.43;65.04
46303;BME280;32029;51.358;5.628;2023-04-06T04:58:26;101401.09;;;6.46;65.55
46303;BME280;32029;51.358;5.628;2023-04-06T05:00:53;101401.28;;;6.44;65.25
46303;BME280;32029;51.358;5.628;2023-04-06T05:03:23;101338.94;;;6.02;65.66
46303;BME280;32029;51.358;5.628;2023-04-06T05:05:50;101395.50;;;6.47;65.89
46303;BME280;32029;51.358;5.628;2023-04-06T05:08:16;101408.00;;;6.50;65.61
46303;BME280;32029;51.358;5.628;2023-04-06T05:10:43;101398.78;;;6.51;65.71
46303;BME280;32029;51.358;5.628;2023-04-06T05:13:14;101403.09;;;6.53;65.69
46303;BME280;32029;51.358;5.628;2023-04-06T05:15:41;101396.50;;;6.56;65.66
46303;BME280;32029;51.358;5.628;2023-04-06T05:18:08;101397.19;;;6.58;65.84
46303;BME280;32029;51.358;5.628;2023-04-06T05:20:35;101399.47;;;6.62;65.94
46303;BME280;32029;51.358;5.628;2023-04-06T05:23:02;101399.19;;;6.66;65.83
46303;BME280;32029;51.358;5.628;2023-04-06T05:25:29;101389.13;;;6.66;65.77
46303;BME280;32029;51.358;5.628;2023-04-06T05:27:55;101391.13;;;6.74;65.71
46303;BME280;32029;51.358;5.628;2023-04-06T05:30:22;101398.84;;;6.78;65.98
46303;BME280;32029;51.358;5.628;2023-04-06T05:32:50;101403.00;;;6.82;65.85
46303;BME280;32029;51.358;5.628;2023-04-06T05:35:16;101393.53;;;6.86;66.01
46303;BME280;32029;51.358;5.628;2023-04-06T05:37:43;101359.56;;;6.71;65.90
46303;BME280;32029;51.358;5.628;2023-04-06T05:40:10;101394.34;;;6.97;65.99
46303;BME280;32029;51.358;5.628;2023-04-06T05:42:41;101401.22;;;7.01;65.98
46303;BME280;32029;51.358;5.628;2023-04-06T05:45:10;101389.00;;;7.05;65.41
46303;BME280;32029;51.358;5.628;2023-04-06T05:47:37;101385.25;;;7.06;65.60
46303;BME280;32029;51.358;5.628;2023-04-06T05:50:04;101386.38;;;7.13;65.40
46303;BME280;32029;51.358;5.628;2023-04-06T05:52:31;101388.63;;;7.18;65.73
46303;BME280;32029;51.358;5.628;2023-04-06T05:54:58;101387.19;;;7.23;65.36
46303;BME280;32029;51.358;5.628;2023-04-06T05:57:24;101390.31;;;7.28;65.76
46303;BME280;32029;51.358;5.628;2023-04-06T05:59:51;101380.81;;;7.32;65.59
46303;BME280;32029;51.358;5.628;2023-04-06T06:02:18;101385.66;;;7.39;65.59
46303;BME280;32029;51.358;5.628;2023-04-06T06:04:44;101383.19;;;7.45;65.73
46303;BME280;32029;51.358;5.628;2023-04-06T06:07:11;101380.84;;;7.50;65.59
46303;BME280;32029;51.358;5.628;2023-04-06T06:09:38;101383.84;;;7.57;65.43
46303;BME280;32029;51.358;5.628;2023-04-06T06:12:04;101379.44;;;7.64;65.86
46303;BME280;32029;51.358;5.628;2023-04-06T06:14:31;101382.25;;;7.72;65.39
46303;BME280;32029;51.358;5.628;2023-04-06T06:16:58;101378.75;;;7.80;65.47
46303;BME280;32029;51.358;5.628;2023-04-06T06:19:25;101377.97;;;7.88;65.53
46303;BME280;32029;51.358;5.628;2023-04-06T06:21:51;101377.91;;;7.97;65.67
46303;BME280;32029;51.358;5.628;2023-04-06T06:24:18;101385.16;;;8.06;65.13
46303;BME280;32029;51.358;5.628;2023-04-06T06:26:45;101377.88;;;8.15;65.34
46303;BME280;32029;51.358;5.628;2023-04-06T06:29:11;101362.34;;;8.16;65.15
46303;BME280;32029;51.358;5.628;2023-04-06T06:31:38;101383.16;;;8.34;64.86
46303;BME280;32029;51.358;5.628;2023-04-06T06:34:05;101385.66;;;8.46;64.83
46303;BME280;32029;51.358;5.628;2023-04-06T06:36:32;101380.97;;;8.56;64.77
46303;BME280;32029;51.358;5.628;2023-04-06T06:38:58;101386.16;;;8.67;64.64
46303;BME280;32029;51.358;5.628;2023-04-06T06:41:26;101370.97;;;8.73;64.47
46303;BME280;32029;51.358;5.628;2023-04-06T06:43:53;101387.66;;;8.88;64.00
46303;BME280;32029;51.358;5.628;2023-04-06T06:46:20;101383.91;;;8.97;63.82
46303;BME280;32029;51.358;5.628;2023-04-06T06:48:47;101388.75;;;9.03;63.24
46303;BME280;32029;51.358;5.628;2023-04-06T06:51:14;101379.19;;;9.07;63.05
46303;BME280;32029;51.358;5.628;2023-04-06T06:53:40;101383.53;;;9.18;63.29
46303;BME280;32029;51.358;5.628;2023-04-06T06:56:07;101373.44;;;9.26;63.21
46303;BME280;32029;51.358;5.628;2023-04-06T06:58:34;101376.22;;;9.35;62.62
46303;BME280;32029;51.358;5.628;2023-04-06T07:01:00;101363.56;;;9.33;62.53
46303;BME280;32029;51.358;5.628;2023-04-06T07:03:27;101358.59;;;9.37;62.46
46303;BME280;32029;51.358;5.628;2023-04-06T07:05:54;101372.16;;;9.55;61.93
46303;BME280;32029;51.358;5.628;2023-04-06T07:08:22;101368.06;;;9.59;61.90
46303;BME280;32029;51.358;5.628;2023-04-06T07:10:51;101374.91;;;9.63;60.95
46303;BME280;32029;51.358;5.628;2023-04-06T07:13:22;101372.88;;;9.65;60.65
46303;BME280;32029;51.358;5.628;2023-04-06T07:15:50;101363.09;;;9.63;60.57
46303;BME280;32029;51.358;5.628;2023-04-06T07:18:20;101372.88;;;9.65;60.38
46303;BME280;32029;51.358;5.628;2023-04-06T07:20:47;101368.78;;;9.69;60.30
46303;BME280;32029;51.358;5.628;2023-04-06T07:23:13;101374.78;;;9.73;60.37
46303;BME280;32029;51.358;5.628;2023-04-06T07:25:40;101366.06;;;9.77;60.36
46303;BME280;32029;51.358;5.628;2023-04-06T07:28:07;101356.78;;;9.78;59.77
46303;BME280;32029;51.358;5.628;2023-04-06T07:30:34;101373.25;;;9.87;59.70
46303;BME280;32029;51.358;5.628;2023-04-06T07:33:01;101373.63;;;9.92;59.51
46303;BME280;32029;51.358;5.628;2023-04-06T07:35:27;101343.28;;;9.85;59.81
46303;BME280;32029;51.358;5.628;2023-04-06T07:37:54;101354.75;;;9.97;59.35
46303;BME280;32029;51.358;5.628;2023-04-06T07:40:21;101374.16;;;10.12;59.38
46303;BME280;32029;51.358;5.628;2023-04-06T07:42:48;101368.13;;;10.16;59.73
46303;BME280;32029;51.358;5.628;2023-04-06T07:45:15;101364.72;;;10.22;59.07
46303;BME280;32029;51.358;5.628;2023-04-06T07:47:42;101363.72;;;10.32;59.13
46303;BME280;32029;51.358;5.628;2023-04-06T07:50:09;101363.03;;;10.38;59.21
46303;BME280;32029;51.358;5.628;2023-04-06T07:52:36;101364.38;;;10.50;59.26
46303;BME280;32029;51.358;5.628;2023-04-06T07:55:03;101370.53;;;10.60;58.38
46303;BME280;32029;51.358;5.628;2023-04-06T07:57:30;101356.13;;;10.66;57.89
46303;BME280;32029;51.358;5.628;2023-04-06T07:59:56;101362.25;;;10.76;58.17
46303;BME280;32029;51.358;5.628;2023-04-06T08:02:23;101361.22;;;10.86;57.71
46303;BME280;32029;51.358;5.628;2023-04-06T08:04:50;101356.34;;;10.96;58.34
46303;BME280;32029;51.358;5.628;2023-04-06T08:07:16;101353.22;;;11.07;58.12
46303;BME280;32029;51.358;5.628;2023-04-06T08:09:43;101365.38;;;11.21;57.74
46303;BME280;32029;51.358;5.628;2023-04-06T08:12:10;101354.53;;;11.27;57.38
46303;BME280;32029;51.358;5.628;2023-04-06T08:14:37;101358.94;;;11.37;57.97
46303;BME280;32029;51.358;5.628;2023-04-06T08:17:03;101357.84;;;11.46;57.10
46303;BME280;32029;51.358;5.628;2023-04-06T08:19:30;101359.88;;;11.52;56.49
46303;BME280;32029;51.358;5.628;2023-04-06T08:21:57;101353.00;;;11.56;56.50
46303;BME280;32029;51.358;5.628;2023-04-06T08:24:23;101358.25;;;11.66;56.59
46303;BME280;32029;51.358;5.628;2023-04-06T08:26:50;101359.44;;;11.71;57.22
46303;BME280;32029;51.358;5.628;2023-04-06T08:29:17;101357.28;;;11.82;57.07
46303;BME280;32029;51.358;5.628;2023-04-06T08:31:44;101367.72;;;11.94;57.02
46303;BME280;32029;51.358;5.628;2023-04-06T08:34:11;101362.47;;;12.08;57.41
46303;BME280;32029;51.358;5.628;2023-04-06T08:36:37;101363.06;;;12.18;55.95
46303;BME280;32029;51.358;5.628;2023-04-06T08:39:04;101361.81;;;12.20;55.80
46303;BME280;32029;51.358;5.628;2023-04-06T08:41:31;101351.94;;;12.11;56.07
46303;BME280;32029;51.358;5.628;2023-04-06T08:44:00;101364.78;;;12.19;56.42
46303;BME280;32029;51.358;5.628;2023-04-06T08:46:26;101367.94;;;12.31;56.67
46303;BME280;32029;51.358;5.628;2023-04-06T08:49:02;101366.44;;;12.43;56.47
46303;BME280;32029;51.358;5.628;2023-04-06T08:51:29;101361.19;;;12.56;56.41
46303;BME280;32029;51.358;5.628;2023-04-06T08:53:57;101362.78;;;12.65;56.53
46303;BME280;32029;51.358;5.628;2023-04-06T08:56:26;101361.66;;;12.74;55.59
46303;BME280;32029;51.358;5.628;2023-04-06T08:58:54;101365.72;;;12.79;55.49
46303;BME280;32029;51.358;5.628;2023-04-06T09:01:25;101366.31;;;12.74;55.49
46303;BME280;32029;51.358;5.628;2023-04-06T09:03:56;101369.34;;;12.79;55.91
46303;BME280;32029;51.358;5.628;2023-04-06T09:06:24;101368.13;;;12.82;54.54
46303;BME280;32029;51.358;5.628;2023-04-06T09:08:53;101365.09;;;12.77;55.36
46303;BME280;32029;51.358;5.628;2023-04-06T09:11:19;101368.50;;;12.79;55.31
46303;BME280;32029;51.358;5.628;2023-04-06T09:13:52;101368.41;;;12.87;55.43
46303;BME280;32029;51.358;5.628;2023-04-06T09:16:19;101360.44;;;12.92;54.32
46303;BME280;32029;51.358;5.628;2023-04-06T09:18:47;101365.09;;;12.91;54.60
46303;BME280;32029;51.358;5.628;2023-04-06T09:21:17;101370.03;;;12.96;54.50
46303;BME280;32029;51.358;5.628;2023-04-06T09:23:44;101354.47;;;12.88;54.40
46303;BME280;32029;51.358;5.628;2023-04-06T09:26:13;101363.47;;;12.97;54.40
46303;BME280;32029;51.358;5.628;2023-04-06T09:28:56;101370.09;;;13.03;54.84
46303;BME280;32029;51.358;5.628;2023-04-06T09:31:24;101367.81;;;13.06;55.00
46303;BME280;32029;51.358;5.628;2023-04-06T09:33:52;101348.94;;;13.03;54.83
46303;BME280;32029;51.358;5.628;2023-04-06T09:36:19;101369.25;;;13.17;54.42
46303;BME280;32029;51.358;5.628;2023-04-06T09:38:57;101368.31;;;13.10;54.51
46303;BME280;32029;51.358;5.628;2023-04-06T09:41:34;101344.41;;;12.95;55.55
46303;BME280;32029;51.358;5.628;2023-04-06T09:44:11;101370.88;;;13.11;56.17
46303;BME280;32029;51.358;5.628;2023-04-06T09:46:41;101372.28;;;13.22;55.96
46303;BME280;32029;51.358;5.628;2023-04-06T09:49:09;101364.03;;;13.37;55.67
46303;BME280;32029;51.358;5.628;2023-04-06T09:51:40;101355.13;;;13.35;55.73
46303;BME280;32029;51.358;5.628;2023-04-06T09:54:07;101359.09;;;13.47;54.55
46303;BME280;32029;51.358;5.628;2023-04-06T09:59:29;101362.38;;;13.57;55.47
46303;BME280;32029;51.358;5.628;2023-04-06T10:01:59;101363.31;;;13.64;55.36
46303;BME280;32029;51.358;5.628;2023-04-06T10:06:55;101369.25;;;13.83;54.89
46303;BME280;32029;51.358;5.628;2023-04-06T10:09:25;101368.88;;;13.86;55.04
46303;BME280;32029;51.358;5.628;2023-04-06T10:11:52;101368.19;;;13.84;55.11
46303;BME280;32029;51.358;5.628;2023-04-06T10:14:19;101378.13;;;13.78;56.08
46303;BME280;32029;51.358;5.628;2023-04-06T10:16:48;101377.72;;;13.81;56.40
46303;BME280;32029;51.358;5.628;2023-04-06T10:19:24;101372.56;;;13.93;57.03
46303;BME280;32029;51.358;5.628;2023-04-06T10:21:54;101374.13;;;14.02;56.61
46303;BME280;32029;51.358;5.628;2023-04-06T10:24:24;101377.53;;;14.04;57.68
46303;BME280;32029;51.358;5.628;2023-04-06T10:27:03;101383.72;;;14.06;56.88
46303;BME280;32029;51.358;5.628;2023-04-06T10:29:46;101382.16;;;13.97;57.16
46303;BME280;32029;51.358;5.628;2023-04-06T10:32:14;101376.81;;;13.95;58.72
46303;BME280;32029;51.358;5.628;2023-04-06T10:34:41;101386.59;;;13.98;57.86
46303;BME280;32029;51.358;5.628;2023-04-06T10:37:13;101376.53;;;13.90;58.78
46303;BME280;32029;51.358;5.628;2023-04-06T10:39:52;101375.09;;;13.73;59.24
46303;BME280;32029;51.358;5.628;2023-04-06T10:42:25;101380.66;;;13.80;60.21
46303;BME280;32029;51.358;5.628;2023-04-06T10:44:52;101378.84;;;13.87;59.83
46303;BME280;32029;51.358;5.628;2023-04-06T10:47:18;101380.38;;;13.89;59.77
46303;BME280;32029;51.358;5.628;2023-04-06T10:49:45;101384.16;;;13.88;59.16
46303;BME280;32029;51.358;5.628;2023-04-06T10:52:12;101378.19;;;13.85;59.30
46303;BME280;32029;51.358;5.628;2023-04-06T10:54:42;101381.69;;;13.93;59.97
46303;BME280;32029;51.358;5.628;2023-04-06T10:57:10;101370.69;;;14.00;60.08
46303;BME280;32029;51.358;5.628;2023-04-06T10:59:42;101365.16;;;14.00;59.97
46303;BME280;32029;51.358;5.628;2023-04-06T11:02:19;101373.19;;;13.95;60.78
46303;BME280;32029;51.358;5.628;2023-04-06T11:04:56;101372.56;;;13.93;60.35
46303;BME280;32029;51.358;5.628;2023-04-06T11:07:24;101347.09;;;13.76;60.05
46303;BME280;32029;51.358;5.628;2023-04-06T11:09:52;101361.81;;;13.62;61.76
46303;BME280;32029;51.358;5.628;2023-04-06T11:12:22;101368.28;;;13.54;63.26
46303;BME280;32029;51.358;5.628;2023-04-06T11:14:57;101358.75;;;13.57;63.96
46303;BME280;32029;51.358;5.628;2023-04-06T11:17:33;101359.22;;;13.60;64.26
46303;BME280;32029;51.358;5.628;2023-04-06T11:20:00;101333.44;;;13.46;64.59
46303;BME280;32029;51.358;5.628;2023-04-06T11:22:26;101360.97;;;13.61;64.76
46303;BME280;32029;51.358;5.628;2023-04-06T11:25:04;101359.22;;;13.60;65.18
46303;BME280;32029;51.358;5.628;2023-04-06T11:27:31;101362.56;;;13.56;65.73
46303;BME280;32029;51.358;5.628;2023-04-06T11:29:59;101370.38;;;13.52;65.88
46303;BME280;32029;51.358;5.628;2023-04-06T11:32:27;101354.88;;;13.51;66.42
46303;BME280;32029;51.358;5.628;2023-04-06T11:34:53;101338.59;;;13.35;66.58
46303;BME280;32029;51.358;5.628;2023-04-06T11:37:20;101359.84;;;13.41;66.41
46303;BME280;32029;51.358;5.628;2023-04-06T11:39:48;101352.63;;;13.40;67.58
46303;BME280;32029;51.358;5.628;2023-04-06T11:42:23;101355.00;;;13.43;68.49
46303;BME280;32029;51.358;5.628;2023-04-06T11:44:53;101353.56;;;13.47;68.94
46303;BME280;32029;51.358;5.628;2023-04-06T11:47:27;101346.63;;;13.51;69.28
46303;BME280;32029;51.358;5.628;2023-04-06T11:49:54;101349.63;;;13.56;69.44
46303;BME280;32029;51.358;5.628;2023-04-06T11:52:26;101312.81;;;13.42;70.04
46303;BME280;32029;51.358;5.628;2023-04-06T11:54:54;101343.16;;;13.64;70.45
46303;BME280;32029;51.358;5.628;2023-04-06T11:57:23;101316.84;;;13.61;70.41
46303;BME280;32029;51.358;5.628;2023-04-06T11:59:55;101318.03;;;13.73;70.55
46303;BME280;32029;51.358;5.628;2023-04-06T12:02:21;101332.88;;;13.94;70.63
46303;BME280;32029;51.358;5.628;2023-04-06T12:04:48;101332.34;;;14.05;70.94
46303;BME280;32029;51.358;5.628;2023-04-06T12:07:15;101330.53;;;14.19;70.83
46303;BME280;32029;51.358;5.628;2023-04-06T12:09:43;101318.88;;;14.17;71.14
46303;BME280;32029;51.358;5.628;2023-04-06T12:12:09;101323.41;;;14.31;70.44
46303;BME280;32029;51.358;5.628;2023-04-06T12:14:36;101331.59;;;14.39;69.77
46303;BME280;32029;51.358;5.628;2023-04-06T12:17:03;101332.00;;;14.43;70.35
46303;BME280;32029;51.358;5.628;2023-04-06T12:19:29;101325.25;;;14.45;71.40
46303;BME280;32029;51.358;5.628;2023-04-06T12:21:57;101317.34;;;14.42;70.89
46303;BME280;32029;51.358;5.628;2023-04-06T12:24:23;101328.09;;;14.52;71.17
46303;BME280;32029;51.358;5.628;2023-04-06T12:26:50;101322.41;;;14.60;71.41
46303;BME280;32029;51.358;5.628;2023-04-06T12:29:17;101318.84;;;14.66;71.46
46303;BME280;32029;51.358;5.628;2023-04-06T12:31:44;101319.53;;;14.75;70.62
46303;BME280;32029;51.358;5.628;2023-04-06T12:34:11;101323.41;;;14.81;70.34
46303;BME280;32029;51.358;5.628;2023-04-06T12:36:38;101318.53;;;14.83;70.40
46303;BME280;32029;51.358;5.628;2023-04-06T12:39:05;101315.56;;;14.84;70.80
46303;BME280;32029;51.358;5.628;2023-04-06T12:41:32;101314.94;;;14.89;70.67
46303;BME280;32029;51.358;5.628;2023-04-06T12:43:59;101304.28;;;14.86;70.55
46303;BME280;32029;51.358;5.628;2023-04-06T12:46:29;101289.34;;;14.74;70.87
46303;BME280;32029;51.358;5.628;2023-04-06T12:48:57;101309.41;;;14.89;70.50
46303;BME280;32029;51.358;5.628;2023-04-06T12:51:27;101316.00;;;14.88;70.59
46303;BME280;32029;51.358;5.628;2023-04-06T12:53:54;101312.78;;;14.84;70.38
46303;BME280;32029;51.358;5.628;2023-04-06T12:56:21;101299.59;;;14.80;70.22
46303;BME280;32029;51.358;5.628;2023-04-06T12:58:50;101301.06;;;14.76;70.38
46303;BME280;32029;51.358;5.628;2023-04-06T13:01:17;101269.72;;;14.55;70.63